United Spirit — ELYB2 — position and weather

sailwx.info

Track history (hours):
 
Tides and Currents Weather Stations Pressure Air Temp Water Temp Dewpoint Dewpoint Depression Visibility Wind Speed Wind Dir Waves Ship Positions

United Spirit

Last reported at 2016-Aug-30 14:28 UTC. Time now 2016-Aug-30 20:53 UTC.
Position S 32°25' E 152°42'.

Type: Cargo ship. MMSI: 636011280.

Date/timePositionNaut miles runAvg speedWind from/ knotsBaromVisibWave heightAir tempDewpointWater temp
2016-Aug-30 14:28S 32°25' E 152°42'1314.2
2016-Aug-30 13:32S 32°35' E 152°32'1515.3
2016-Aug-30 12:33S 32°47' E 152°22'1515.4
2016-Aug-30 11:33S 33°02' E 152°17'1514.2
2016-Aug-30 10:29S 33°14' E 152°05'197 7.6
2016-Aug-29 08:33S 36°12' E 150°22'1414.3
2016-Aug-29 07:33S 36°26' E 150°18'1616.5
2016-Aug-29 06:33S 36°42' E 150°15'1616.5
2016-Aug-29 05:33S 36°58' E 150°11'1717.0
2016-Aug-29 04:33S 37°15' E 150°08'1716.8
2016-Aug-29 03:33S 37°31' E 150°05'1615.9
2016-Aug-29 02:34S 37°43' E 149°51'1716.6
2016-Aug-29 01:33S 37°54' E 149°35'1616.3
2016-Aug-29 00:33S 38°05' E 149°20'1616.0
2016-Aug-28 23:34S 38°15' E 149°04'1816.5
2016-Aug-28 22:30S 38°26' E 148°47'1616.8
2016-Aug-28 21:33S 38°37' E 148°32'6315.8
2016-Aug-28 17:33S 39°03' E 147°18'1716.5
2016-Aug-28 16:33S 39°09' E 146°58'1716.8
2016-Aug-28 15:33S 39°15' E 146°38'1616.5
2016-Aug-28 14:33S 39°17' E 146°17'1716.6
2016-Aug-28 13:33S 39°09' E 145°58'1716.7
2016-Aug-28 12:32S 38°60' E 145°39'150 4.2
2016-Aug-27 01:07S 38°47' E 142°27'1017.0
2016-Aug-27 00:31S 38°44' E 142°14'1616.9
2016-Aug-26 23:33S 38°40' E 141°54'27216.0
2016-Aug-26 06:33S 35°15' E 138°10'3015.0
2016-Aug-26 04:33S 34°48' E 138°25'4 3.5
2016-Aug-26 03:32S 34°47' E 138°29'0 0.0
2016-Aug-26 02:32S 34°47' E 138°29'0 0.0
2016-Aug-26 01:32S 34°47' E 138°29'0 0.0
2016-Aug-26 00:32S 34°47' E 138°29'0 0.0
2016-Aug-25 23:32S 34°47' E 138°29'0 0.0
2016-Aug-25 22:32S 34°47' E 138°29'0 0.0
2016-Aug-25 21:32S 34°47' E 138°29'0 0.0
2016-Aug-25 20:32S 34°47' E 138°29'0 0.0
2016-Aug-25 19:32S 34°47' E 138°29'1 1.5
2016-Aug-25 18:33S 34°47' E 138°27'8 7.9
2016-Aug-25 17:33S 34°50' E 138°18'1 1.0
2016-Aug-25 16:33S 34°49' E 138°18'1 0.8
2016-Aug-25 15:33S 34°50' E 138°18'8 8.2
2016-Aug-25 14:33S 34°57' E 138°15'1312.9
2016-Aug-25 13:33S 35°09' E 138°08'  
Track history (hours):
 
Tides and Currents Weather Stations Pressure Air Temp Water Temp Dewpoint Dewpoint Depression Visibility Wind Speed Wind Dir Waves Ship Positions

United Spirit

Last reported at 2016-Aug-30 14:28 UTC. Time now 2016-Aug-30 20:53 UTC.
Position S 32°25' E 152°42'.

Type: Cargo ship. MMSI: 636011280.

Date/timePositionNaut miles runAvg speedWind from/ knotsBaromVisibWave heightAir tempDewpointWater temp
2016-Aug-30 14:28S 32°25' E 152°42'1314.2
2016-Aug-30 13:32S 32°35' E 152°32'1515.3
2016-Aug-30 12:33S 32°47' E 152°22'1515.4
2016-Aug-30 11:33S 33°02' E 152°17'1514.2
2016-Aug-30 10:29S 33°14' E 152°05'197 7.6
2016-Aug-29 08:33S 36°12' E 150°22'1414.3
2016-Aug-29 07:33S 36°26' E 150°18'1616.5
2016-Aug-29 06:33S 36°42' E 150°15'1616.5
2016-Aug-29 05:33S 36°58' E 150°11'1717.0
2016-Aug-29 04:33S 37°15' E 150°08'1716.8
2016-Aug-29 03:33S 37°31' E 150°05'1615.9
2016-Aug-29 02:34S 37°43' E 149°51'1716.6
2016-Aug-29 01:33S 37°54' E 149°35'1616.3
2016-Aug-29 00:33S 38°05' E 149°20'1616.0
2016-Aug-28 23:34S 38°15' E 149°04'1816.5
2016-Aug-28 22:30S 38°26' E 148°47'1616.8
2016-Aug-28 21:33S 38°37' E 148°32'6315.8
2016-Aug-28 17:33S 39°03' E 147°18'1716.5
2016-Aug-28 16:33S 39°09' E 146°58'1716.8
2016-Aug-28 15:33S 39°15' E 146°38'1616.5
2016-Aug-28 14:33S 39°17' E 146°17'1716.6
2016-Aug-28 13:33S 39°09' E 145°58'1716.7
2016-Aug-28 12:32S 38°60' E 145°39'150 4.2
2016-Aug-27 01:07S 38°47' E 142°27'1017.0
2016-Aug-27 00:31S 38°44' E 142°14'1616.9
2016-Aug-26 23:33S 38°40' E 141°54'27216.0
2016-Aug-26 06:33S 35°15' E 138°10'3015.0
2016-Aug-26 04:33S 34°48' E 138°25'4 3.5
2016-Aug-26 03:32S 34°47' E 138°29'0 0.0
2016-Aug-26 02:32S 34°47' E 138°29'0 0.0
2016-Aug-26 01:32S 34°47' E 138°29'0 0.0
2016-Aug-26 00:32S 34°47' E 138°29'0 0.0
2016-Aug-25 23:32S 34°47' E 138°29'0 0.0
2016-Aug-25 22:32S 34°47' E 138°29'0 0.0
2016-Aug-25 21:32S 34°47' E 138°29'0 0.0
2016-Aug-25 20:32S 34°47' E 138°29'0 0.0
2016-Aug-25 19:32S 34°47' E 138°29'1 1.5
2016-Aug-25 18:33S 34°47' E 138°27'8 7.9
2016-Aug-25 17:33S 34°50' E 138°18'1 1.0
2016-Aug-25 16:33S 34°49' E 138°18'1 0.8
2016-Aug-25 15:33S 34°50' E 138°18'8 8.2
2016-Aug-25 14:33S 34°57' E 138°15'1312.9
2016-Aug-25 13:33S 35°09' E 138°08'  

Dump ship's entire track history